Time;durP1;ratioP1;P1;durP2;ratioP2;P2;SDS_P1;SDS_P2;PMS_P1;PMS_P2;Temp;Humidity;BMP_temperature;BMP_pressure;BME280_temperature;BME280_humidity;BME280_pressure;Samples;Min_cycle;Max_cycle;Signal;HPM_P1;HPM_P2
2022/04/14 00:02:15;;;;;;;7.97;6.23;;;;;;;-143.37;100.00;62585.38;5053119;28;20425;-75
2022/04/14 00:04:51;;;;;;;6.67;6.07;;;;;;;-143.37;100.00;62585.38;5051587;28;20444;-75
2022/04/14 00:07:26;;;;;;;7.10;5.90;;;;;;;-143.37;100.00;62585.38;5053631;28;20440;-75
2022/04/14 00:10:03;;;;;;;6.73;5.63;;;;;;;-143.37;100.00;62585.38;5051799;28;20516;-75
2022/04/14 00:12:41;;;;;;;11.00;5.60;;;;;;;-143.37;100.00;62585.38;5053037;28;20795;-75
2022/04/14 00:15:17;;;;;;;6.97;6.00;;;;;;;-143.37;100.00;62585.38;5052695;28;20473;-75
2022/04/14 00:17:52;;;;;;;8.93;6.63;;;;;;;-143.37;100.00;62585.38;5057900;28;20441;-75
2022/04/14 00:20:29;;;;;;;6.47;5.87;;;;;;;-143.37;100.00;62585.38;5052909;28;20479;-76
2022/04/14 00:23:05;;;;;;;6.93;6.00;;;;;;;-143.37;100.00;62585.38;5069957;28;20438;-75
2022/04/14 00:25:40;;;;;;;6.73;6.00;;;;;;;-143.37;100.00;62585.38;5054595;28;20486;-75
2022/04/14 00:28:18;;;;;;;5.83;5.27;;;;;;;-143.37;100.00;62585.38;5049291;28;20442;-75
2022/04/14 00:30:53;;;;;;;8.27;6.80;;;;;;;-143.37;100.00;62585.38;5054601;28;20925;-75
2022/04/14 00:33:29;;;;;;;6.10;5.50;;;;;;;-143.37;100.00;62585.38;5054978;28;20843;-75
2022/04/14 00:36:07;;;;;;;7.47;5.50;;;;;;;-143.37;100.00;62585.38;5070684;28;20540;-75
2022/04/14 00:38:42;;;;;;;7.30;5.83;;;;;;;-143.37;100.00;62585.38;5055055;28;20445;-75
2022/04/14 00:41:18;;;;;;;7.53;6.23;;;;;;;-143.37;100.00;62585.38;5063178;28;20496;-75
2022/04/14 00:43:55;;;;;;;7.17;5.87;;;;;;;-143.37;100.00;62585.38;5069377;28;20715;-75
2022/04/14 00:46:31;;;;;;;6.80;6.10;;;;;;;-143.37;100.00;62585.38;5068017;28;20434;-75
2022/04/14 00:49:07;;;;;;;8.10;5.50;;;;;;;-143.37;100.00;62585.38;5068686;28;20801;-75
2022/04/14 00:51:42;;;;;;;7.37;6.10;;;;;;;-143.37;100.00;62585.38;5066714;28;20430;-75
2022/04/14 00:54:18;;;;;;;7.90;6.63;;;;;;;-143.37;100.00;62585.38;5052732;28;20472;-75
2022/04/14 00:56:54;;;;;;;7.63;5.80;;;;;;;-143.37;100.00;62585.38;5067257;28;20863;-75
2022/04/14 00:59:31;;;;;;;8.67;6.50;;;;;;;-143.37;100.00;62585.38;5070663;28;20448;-75
2022/04/14 01:02:07;;;;;;;7.10;6.40;;;;;;;-143.37;100.00;62585.38;5069673;28;20798;-75
2022/04/14 01:04:43;;;;;;;6.20;5.20;;;;;;;-143.37;100.00;62585.38;5065515;28;20441;-75
2022/04/14 01:07:19;;;;;;;6.13;4.70;;;;;;;-143.37;100.00;62585.38;5053539;28;20467;-75
2022/04/14 01:09:55;;;;;;;9.93;5.23;;;;;;;-143.37;100.00;62585.38;5068671;28;20450;-75
2022/04/14 01:12:31;;;;;;;7.03;5.30;;;;;;;-143.37;100.00;62585.38;5069527;28;20449;-75
2022/04/14 01:15:13;;;;;;;6.53;4.83;;;;;;;-143.37;100.00;62585.38;5071479;28;20458;-75
2022/04/14 01:17:49;;;;;;;8.27;5.17;;;;;;;-143.37;100.00;62585.38;5050902;28;20438;-75
2022/04/14 01:20:24;;;;;;;7.83;5.17;;;;;;;-143.37;100.00;62585.38;5068857;28;20469;-75
2022/04/14 01:23:04;;;;;;;6.30;5.30;;;;;;;-143.37;100.00;62585.38;5070065;28;20452;-75
2022/04/14 01:25:41;;;;;;;7.13;5.50;;;;;;;-143.37;100.00;62585.38;5086322;28;20533;-75
2022/04/14 01:28:17;;;;;;;5.70;4.63;;;;;;;-143.37;100.00;62585.38;5065887;28;20434;-76
2022/04/14 01:30:53;;;;;;;4.80;4.30;;;;;;;-143.37;100.00;62585.38;5066954;28;20441;-76
2022/04/14 01:33:29;;;;;;;7.47;5.23;;;;;;;-143.37;100.00;62585.38;5069841;28;20469;-75
2022/04/14 01:36:06;;;;;;;7.30;5.47;;;;;;;-143.37;100.00;62585.38;5052049;28;20489;-75
2022/04/14 01:38:41;;;;;;;7.20;5.10;;;;;;;-143.37;100.00;62585.38;5064053;28;20470;-75
2022/04/14 01:41:18;;;;;;;7.30;5.50;;;;;;;-143.37;100.00;62585.38;5068310;28;20433;-75
2022/04/14 01:43:54;;;;;;;5.37;4.90;;;;;;;-143.37;100.00;62585.38;5068739;28;20464;-75
2022/04/14 01:46:32;;;;;;;7.23;4.97;;;;;;;-143.37;100.00;62585.38;5066137;28;20426;-75
2022/04/14 01:49:07;;;;;;;6.33;4.77;;;;;;;-143.37;100.00;62585.38;5070282;28;20434;-75
2022/04/14 01:51:43;;;;;;;13.37;6.43;;;;;;;-143.37;100.00;62585.38;5067337;28;20429;-75
2022/04/14 01:54:19;;;;;;;8.17;6.00;;;;;;;-143.37;100.00;62585.38;5052890;28;20540;-75
2022/04/14 01:56:56;;;;;;;5.60;4.70;;;;;;;-143.37;100.00;62585.38;5068094;28;20502;-76
2022/04/14 01:59:31;;;;;;;9.30;5.77;;;;;;;-143.37;100.00;62585.38;5049289;28;20477;-75
2022/04/14 02:02:07;;;;;;;6.00;5.20;;;;;;;-143.37;100.00;62585.38;5068863;28;20465;-75
2022/04/14 02:04:43;;;;;;;6.43;5.80;;;;;;;-143.37;100.00;62585.38;5052280;28;20454;-75
2022/04/14 02:07:19;;;;;;;6.23;5.03;;;;;;;-143.37;100.00;62585.38;5067778;28;20871;-75
2022/04/14 02:09:54;;;;;;;8.93;5.43;;;;;;;-143.37;100.00;62585.38;5052425;28;20453;-75
2022/04/14 02:12:31;;;;;;;8.73;5.50;;;;;;;-143.37;100.00;62585.38;5068557;28;20475;-75
2022/04/14 02:15:07;;;;;;;7.30;5.60;;;;;;;-143.37;100.00;62585.38;5069071;28;20466;-75
2022/04/14 02:17:43;;;;;;;7.30;5.60;;;;;;;-143.37;100.00;62585.38;5072546;28;20425;-75
2022/04/14 02:20:19;;;;;;;9.60;4.77;;;;;;;-143.37;100.00;62585.38;5070506;28;20533;-75
2022/04/14 02:22:54;;;;;;;8.80;6.33;;;;;;;-143.37;100.00;62585.38;5072467;28;20449;-75
2022/04/14 02:25:30;;;;;;;4.90;4.50;;;;;;;-143.37;100.00;62585.38;5058569;28;20430;-75
2022/04/14 02:28:07;;;;;;;7.90;5.60;;;;;;;-143.37;100.00;62585.38;5070661;28;20943;-75
2022/04/14 02:30:43;;;;;;;8.03;5.90;;;;;;;-143.37;100.00;62585.38;5071412;28;20537;-75
2022/04/14 02:33:18;;;;;;;7.97;6.20;;;;;;;-143.37;100.00;62585.38;5070301;28;20844;-75
2022/04/14 02:35:54;;;;;;;7.03;6.30;;;;;;;-143.37;100.00;62585.38;5072574;28;20999;-76
2022/04/14 02:38:30;;;;;;;8.40;6.10;;;;;;;-143.37;100.00;62585.38;5071158;28;20429;-76
2022/04/14 02:41:05;;;;;;;7.93;7.13;;;;;;;-143.37;100.00;62585.38;5072650;28;20441;-75
2022/04/14 02:43:42;;;;;;;7.80;6.20;;;;;;;-143.37;100.00;62585.38;5072124;28;20530;-75
2022/04/14 02:46:19;;;;;;;8.37;5.83;;;;;;;-143.37;100.00;62585.38;5068379;28;20936;-75
2022/04/14 02:48:56;;;;;;;10.27;6.50;;;;;;;-143.37;100.00;62585.38;5070014;28;20450;-75
2022/04/14 02:51:31;;;;;;;8.83;6.70;;;;;;;-143.37;100.00;62585.38;5056451;28;20475;-75
2022/04/14 02:54:08;;;;;;;9.33;6.23;;;;;;;-143.37;100.00;62585.38;5072692;28;20449;-75
2022/04/14 02:56:43;;;;;;;10.63;7.20;;;;;;;-143.37;100.00;62585.38;5071149;28;20515;-74
2022/04/14 02:59:20;;;;;;;8.37;6.93;;;;;;;-143.37;100.00;62585.38;5040762;28;20450;-75
2022/04/14 03:01:56;;;;;;;10.40;6.50;;;;;;;-143.37;100.00;62585.38;5070918;28;20540;-76
2022/04/14 03:04:31;;;;;;;8.00;6.40;;;;;;;-143.37;100.00;62585.38;5068900;28;20458;-75
2022/04/14 03:07:07;;;;;;;7.17;6.17;;;;;;;-143.37;100.00;62585.38;5056732;28;20425;-76
2022/04/14 03:09:42;;;;;;;8.30;6.80;;;;;;;-143.37;100.00;62585.38;5050892;28;20556;-75
2022/04/14 03:12:18;;;;;;;10.27;7.30;;;;;;;-143.37;100.00;62585.38;5071128;28;20441;-75
2022/04/14 03:14:55;;;;;;;8.40;7.50;;;;;;;-143.37;100.00;62585.38;5070266;28;20445;-75
2022/04/14 03:17:31;;;;;;;8.93;6.50;;;;;;;-143.37;100.00;62585.38;5057101;28;21026;-75
2022/04/14 03:20:08;;;;;;;11.43;7.70;;;;;;;-143.37;100.00;62585.38;5054149;28;21046;-76
2022/04/14 03:22:43;;;;;;;9.90;7.30;;;;;;;-143.37;100.00;62585.38;5070847;28;20521;-75
2022/04/14 03:25:19;;;;;;;9.60;7.23;;;;;;;-143.37;100.00;62585.38;5054888;28;20519;-75
2022/04/14 03:27:55;;;;;;;11.60;7.60;;;;;;;-143.37;100.00;62585.38;5068477;28;20434;-75
2022/04/14 03:30:32;;;;;;;12.07;7.30;;;;;;;-143.37;100.00;62585.38;5071333;28;20450;-75
2022/04/14 03:33:08;;;;;;;12.30;8.07;;;;;;;-143.37;100.00;62585.38;5055626;28;20434;-75
2022/04/14 03:35:44;;;;;;;10.80;8.07;;;;;;;-143.37;100.00;62585.38;5071995;28;20469;-75
2022/04/14 03:38:19;;;;;;;10.60;8.13;;;;;;;-143.37;100.00;62585.38;5054594;28;20437;-75
2022/04/14 03:40:55;;;;;;;10.53;8.10;;;;;;;-143.37;100.00;62585.38;5071238;28;20449;-75
2022/04/14 03:43:31;;;;;;;11.67;8.83;;;;;;;-143.37;100.00;62585.38;5070161;28;20426;-75
2022/04/14 03:46:09;;;;;;;12.90;8.73;;;;;;;-143.37;100.00;62585.38;5067613;28;20438;-75
2022/04/14 03:48:44;;;;;;;13.77;8.80;;;;;;;-143.37;100.00;62585.38;5071141;28;20434;-75
2022/04/14 03:51:20;;;;;;;13.40;9.50;;;;;;;-143.37;100.00;62585.38;5070746;28;20425;-75
2022/04/14 03:53:55;;;;;;;11.83;8.90;;;;;;;-143.37;100.00;62585.38;5071435;28;20437;-75
2022/04/14 03:56:31;;;;;;;11.03;9.60;;;;;;;-143.37;100.00;62585.38;5069579;28;20466;-76
2022/04/14 03:59:07;;;;;;;15.93;11.27;;;;;;;-143.37;100.00;62585.38;5070674;28;20458;-75
2022/04/14 04:01:45;;;;;;;14.00;11.87;;;;;;;-143.37;100.00;62585.38;5064971;28;20442;-75
2022/04/14 04:04:20;;;;;;;12.80;10.90;;;;;;;-143.37;100.00;62585.38;5075105;28;20458;-75
2022/04/14 04:06:56;;;;;;;15.73;12.47;;;;;;;-143.37;100.00;62585.38;5063482;28;20494;-76
2022/04/14 04:09:33;;;;;;;14.73;12.37;;;;;;;-143.37;100.00;62585.38;5053758;28;20545;-75
2022/04/14 04:12:10;;;;;;;16.30;12.13;;;;;;;-143.37;100.00;62585.38;5068557;28;20433;-76
2022/04/14 04:14:45;;;;;;;15.93;12.27;;;;;;;-143.37;100.00;62585.38;5067775;28;20447;-75
2022/04/14 04:17:22;;;;;;;17.10;13.77;;;;;;;-143.37;100.00;62585.38;5054358;28;20450;-75
2022/04/14 04:19:59;;;;;;;17.10;13.30;;;;;;;-143.37;100.00;62585.38;5052224;28;20834;-75
2022/04/14 04:22:36;;;;;;;15.10;12.60;;;;;;;-143.37;100.00;62585.38;5067435;28;20442;-75
2022/04/14 04:25:11;;;;;;;16.30;13.70;;;;;;;-143.37;100.00;62585.38;5036565;28;20453;-75
2022/04/14 04:27:47;;;;;;;18.87;14.00;;;;;;;-143.37;100.00;62585.38;5067680;28;20425;-76
2022/04/14 04:30:26;;;;;;;20.40;13.70;;;;;;;-143.37;100.00;62585.38;5052829;28;20443;-75
2022/04/14 04:33:06;;;;;;;16.60;13.63;;;;;;;-143.37;100.00;62585.38;5070371;28;20441;-75
2022/04/14 04:35:42;;;;;;;17.67;12.67;;;;;;;-143.37;100.00;62585.38;5066342;28;20471;-75
2022/04/14 04:38:17;;;;;;;14.03;12.53;;;;;;;-143.37;100.00;62585.38;5067282;28;20933;-75
2022/04/14 04:40:55;;;;;;;15.00;12.50;;;;;;;-143.37;100.00;62585.38;5069368;28;20974;-75
2022/04/14 04:43:30;;;;;;;15.47;11.77;;;;;;;-143.37;100.00;62585.38;5070730;28;20489;-75
2022/04/14 04:46:09;;;;;;;19.23;11.73;;;;;;;-143.37;100.00;62585.38;5065290;28;20445;-75
2022/04/14 04:48:54;;;;;;;15.70;11.07;;;;;;;-143.37;100.00;62585.38;5070956;28;20458;-75
2022/04/14 04:51:31;;;;;;;21.40;12.57;;;;;;;-143.37;100.00;62585.38;5052919;28;20445;-75
2022/04/14 04:54:18;;;;;;;13.87;11.77;;;;;;;-143.37;100.00;62585.38;5069464;28;20549;-76
2022/04/14 04:56:54;;;;;;;15.97;12.80;;;;;;;-143.37;100.00;62585.38;5070205;28;20489;-75
2022/04/14 04:59:30;;;;;;;19.60;12.67;;;;;;;-143.37;100.00;62585.38;5070920;28;20478;-75
2022/04/14 05:02:06;;;;;;;14.20;12.07;;;;;;;-143.37;100.00;62585.38;5064833;28;20442;-75
2022/04/14 05:04:43;;;;;;;12.90;11.50;;;;;;;-143.37;100.00;62585.38;5066050;28;20449;-75
2022/04/14 05:07:19;;;;;;;14.73;11.90;;;;;;;-143.37;100.00;62585.38;5053420;28;20456;-75
2022/04/14 05:09:55;;;;;;;15.03;12.50;;;;;;;-143.37;100.00;62585.38;5068491;28;20521;-76
2022/04/14 05:12:30;;;;;;;19.23;13.60;;;;;;;-143.37;100.00;62585.38;5068314;28;20430;-75
2022/04/14 05:15:07;;;;;;;23.80;13.27;;;;;;;-143.37;100.00;62585.38;5053276;28;20446;-75
2022/04/14 05:17:42;;;;;;;15.27;12.60;;;;;;;-143.37;100.00;62585.38;5045522;28;20431;-75
2022/04/14 05:20:20;;;;;;;18.00;13.87;;;;;;;-143.37;100.00;62585.38;5083405;28;20467;-75
2022/04/14 05:22:55;;;;;;;21.47;13.63;;;;;;;-143.37;100.00;62585.38;5068392;28;20442;-75
2022/04/14 05:25:31;;;;;;;22.00;14.50;;;;;;;-143.37;100.00;62585.38;5068764;28;20441;-75
2022/04/14 05:28:07;;;;;;;19.40;14.90;;;;;;;-143.37;100.00;62585.38;5066414;28;20446;-75
2022/04/14 05:30:43;;;;;;;19.90;14.33;;;;;;;-143.37;100.00;62585.38;5064366;28;20453;-75
2022/04/14 05:33:19;;;;;;;18.87;14.50;;;;;;;-143.37;100.00;62585.38;5068560;28;20445;-75
2022/04/14 05:35:58;;;;;;;20.90;16.43;;;;;;;-143.37;100.00;62585.38;5067198;28;20470;-75
2022/04/14 05:38:34;;;;;;;25.10;18.70;;;;;;;-143.37;100.00;62585.38;5051493;28;20438;-76
2022/04/14 05:41:09;;;;;;;24.13;18.27;;;;;;;-143.37;100.00;62585.38;5067860;28;20944;-75
2022/04/14 05:43:45;;;;;;;23.07;18.60;;;;;;;-143.37;100.00;62585.38;5050249;28;20948;-75
2022/04/14 05:46:21;;;;;;;23.30;16.93;;;;;;;-143.37;100.00;62585.38;5064272;28;21033;-75
2022/04/14 05:48:56;;;;;;;17.30;15.37;;;;;;;-143.37;100.00;62585.38;5065488;28;21014;-75
2022/04/14 05:51:33;;;;;;;21.03;17.03;;;;;;;-143.37;100.00;62585.38;5068855;28;20437;-76
2022/04/14 05:54:09;;;;;;;27.77;18.00;;;;;;;-143.37;100.00;62585.38;5067031;28;20452;-75
2022/04/14 05:56:45;;;;;;;22.20;17.70;;;;;;;-143.37;100.00;62585.38;5066229;28;20956;-75
2022/04/14 05:59:20;;;;;;;25.37;19.17;;;;;;;-143.37;100.00;62585.38;5065310;28;20506;-75
2022/04/14 06:01:56;;;;;;;19.60;16.70;;;;;;;-143.37;100.00;62585.38;5079515;28;20434;-75
2022/04/14 06:04:54;;;;;;;24.40;19.27;;;;;;;-143.37;100.00;62585.38;5050716;28;20446;-75
2022/04/14 06:07:31;;;;;;;22.67;19.23;;;;;;;-143.37;100.00;62585.38;5066025;28;20438;-75
2022/04/14 06:10:08;;;;;;;25.33;21.30;;;;;;;-143.37;100.00;62585.38;5061301;28;20532;-76
2022/04/14 06:12:44;;;;;;;24.97;20.57;;;;;;;-143.37;100.00;62585.38;5067321;28;20440;-75
2022/04/14 06:15:20;;;;;;;25.43;21.23;;;;;;;-143.37;100.00;62585.38;5068319;28;20932;-75
2022/04/14 06:17:55;;;;;;;23.10;19.07;;;;;;;-143.37;100.00;62585.38;5067201;28;20818;-75
2022/04/14 06:20:31;;;;;;;25.33;19.90;;;;;;;-143.37;100.00;62585.38;5049092;28;20484;-76
2022/04/14 06:23:10;;;;;;;24.77;19.70;;;;;;;-143.37;100.00;62585.38;5068043;28;20438;-76
2022/04/14 06:25:49;;;;;;;26.37;20.70;;;;;;;-143.37;100.00;62585.38;5050880;28;20446;-77
2022/04/14 06:28:25;;;;;;;27.67;19.97;;;;;;;-143.37;100.00;62585.38;5060897;28;20450;-75
2022/04/14 06:31:00;;;;;;;24.07;20.47;;;;;;;-143.37;100.00;62585.38;5064452;28;20456;-75
2022/04/14 06:33:36;;;;;;;27.00;19.43;;;;;;;-143.37;100.00;62585.38;5066621;28;20440;-75
2022/04/14 06:36:11;;;;;;;21.70;19.30;;;;;;;-143.37;100.00;62585.38;5063663;28;20859;-77
2022/04/14 06:38:48;;;;;;;24.80;19.60;;;;;;;-143.37;100.00;62585.38;5046188;28;20461;-75
2022/04/14 06:41:26;;;;;;;25.37;20.10;;;;;;;-143.37;100.00;62585.38;5049923;28;20450;-74
2022/04/14 06:44:26;;;;;;;21.80;19.50;;;;;;;-143.37;100.00;62585.38;5042846;28;20450;-75
2022/04/14 06:48:02;;;;;;;24.37;18.60;;;;;;;-143.37;100.00;62585.38;5046172;28;20968;-75
2022/04/14 06:50:53;;;;;;;21.83;17.57;;;;;;;-143.37;100.00;62585.38;5071051;28;20485;-75
2022/04/14 06:53:29;;;;;;;23.20;20.30;;;;;;;-143.37;100.00;62585.38;5060035;28;20441;-75
2022/04/14 06:56:06;;;;;;;22.40;18.50;;;;;;;-143.37;100.00;62585.38;5064590;28;20433;-74
2022/04/14 06:58:42;;;;;;;28.13;18.90;;;;;;;-143.37;100.00;62585.38;5077919;28;20430;-74
2022/04/14 07:01:17;;;;;;;23.77;18.90;;;;;;;-143.37;100.00;62585.38;5067515;28;20425;-75
2022/04/14 07:04:00;;;;;;;20.40;18.27;;;;;;;-143.37;100.00;62585.38;5041905;28;20433;-74
2022/04/14 07:06:48;;;;;;;21.63;18.60;;;;;;;-143.37;100.00;62585.38;5066159;28;20437;-75
2022/04/14 07:09:24;;;;;;;22.40;19.53;;;;;;;-143.37;100.00;62585.38;5069353;28;20445;-75
2022/04/14 07:12:09;;;;;;;22.43;19.40;;;;;;;-143.37;100.00;62585.38;5074336;28;20437;-75
2022/04/14 07:14:44;;;;;;;21.10;17.80;;;;;;;-143.37;100.00;62585.38;5068696;28;20445;-75
2022/04/14 07:17:22;;;;;;;19.47;17.43;;;;;;;-143.37;100.00;62585.38;5069003;28;20854;-75
2022/04/14 07:19:58;;;;;;;18.33;16.30;;;;;;;-143.37;100.00;62585.38;5069105;28;20485;-75
2022/04/14 07:22:43;;;;;;;20.27;18.07;;;;;;;-143.37;100.00;62585.38;5054524;28;20430;-75
2022/04/14 07:25:21;;;;;;;20.57;17.10;;;;;;;-143.37;100.00;62585.38;5053565;28;20461;-75
2022/04/14 07:27:59;;;;;;;19.87;17.80;;;;;;;-143.37;100.00;62585.38;5080984;28;20445;-75
2022/04/14 07:30:36;;;;;;;20.30;16.57;;;;;;;-143.37;100.00;62585.38;5063917;28;20442;-75
2022/04/14 07:33:12;;;;;;;17.30;15.40;;;;;;;-143.37;100.00;62585.38;5067527;28;20446;-75
2022/04/14 07:35:50;;;;;;;18.37;16.47;;;;;;;-143.37;100.00;62585.38;5067787;28;20450;-75
2022/04/14 07:38:26;;;;;;;20.30;18.00;;;;;;;-143.37;100.00;62585.38;5051816;28;20446;-75
2022/04/14 07:41:05;;;;;;;20.27;17.30;;;;;;;-143.37;100.00;62585.38;5069821;28;20976;-76
2022/04/14 07:43:43;;;;;;;20.53;18.17;;;;;;;-143.37;100.00;62585.38;5066172;28;20450;-75
2022/04/14 07:46:19;;;;;;;21.43;18.17;;;;;;;-143.37;100.00;62585.38;5061271;28;20435;-75
2022/04/14 07:48:55;;;;;;;20.83;18.57;;;;;;;-143.37;100.00;62585.38;5063740;28;20469;-75
2022/04/14 07:51:31;;;;;;;21.00;18.20;;;;;;;-143.37;100.00;62585.38;5053801;28;20457;-76
2022/04/14 07:54:07;;;;;;;18.73;16.83;;;;;;;-143.37;100.00;62585.38;5051804;28;20455;-76
2022/04/14 07:56:42;;;;;;;19.50;17.50;;;;;;;-143.37;100.00;62585.38;5068255;28;20489;-75
2022/04/14 07:59:19;;;;;;;21.17;17.77;;;;;;;-143.37;100.00;62585.38;5067622;28;20439;-75
2022/04/14 08:01:54;;;;;;;19.77;17.33;;;;;;;-143.37;100.00;62585.38;5066711;28;20470;-75
2022/04/14 08:04:31;;;;;;;20.33;17.33;;;;;;;-143.37;100.00;62585.38;5064020;28;20953;-75
2022/04/14 08:07:07;;;;;;;19.43;17.40;;;;;;;-143.37;100.00;62585.38;5067905;28;20446;-76
2022/04/14 08:09:42;;;;;;;22.70;18.10;;;;;;;-143.37;100.00;62585.38;5066908;28;20459;-75
2022/04/14 08:12:18;;;;;;;19.30;17.30;;;;;;;-143.37;100.00;62585.38;5068252;28;20466;-76
2022/04/14 08:14:55;;;;;;;19.27;16.40;;;;;;;-143.37;100.00;62585.38;5050965;28;20967;-75
2022/04/14 08:17:33;;;;;;;20.40;18.40;;;;;;;-143.37;100.00;62585.38;5069966;28;20465;-75
2022/04/14 08:20:10;;;;;;;19.70;17.70;;;;;;;-143.37;100.00;62585.38;5061699;28;20485;-75
2022/04/14 08:22:48;;;;;;;22.10;18.60;;;;;;;-143.37;100.00;62585.38;5063231;28;20438;-76
2022/04/14 08:25:38;;;;;;;21.13;17.87;;;;;;;-143.37;100.00;62585.38;5046484;28;20782;-75
2022/04/14 08:28:14;;;;;;;20.57;18.50;;;;;;;-143.37;100.00;62585.38;5083466;28;20925;-75
2022/04/14 08:30:52;;;;;;;20.77;18.50;;;;;;;-143.37;100.00;62585.38;5047769;28;20446;-76
2022/04/14 08:33:28;;;;;;;18.37;16.50;;;;;;;-143.37;100.00;62585.38;5051536;28;20545;-76
2022/04/14 08:36:04;;;;;;;19.17;17.13;;;;;;;-143.37;100.00;62585.38;5066266;28;20442;-75
2022/04/14 08:38:40;;;;;;;19.67;17.57;;;;;;;-143.37;100.00;62585.38;5083685;28;20489;-76
2022/04/14 08:41:17;;;;;;;18.43;16.57;;;;;;;-143.37;100.00;62585.38;5028981;28;20438;-83
2022/04/14 08:44:01;;;;;;;20.23;18.00;;;;;;;-143.37;100.00;62585.38;5078321;28;20446;-76
2022/04/14 08:46:40;;;;;;;18.13;16.20;;;;;;;-143.37;100.00;62585.38;5065441;28;20512;-76
2022/04/14 08:49:17;;;;;;;18.97;17.17;;;;;;;-143.37;100.00;62585.38;5073650;28;20450;-76
2022/04/14 08:51:53;;;;;;;18.23;16.27;;;;;;;-143.37;100.00;62585.38;5066590;28;20441;-76
2022/04/14 08:54:30;;;;;;;20.33;18.23;;;;;;;-143.37;100.00;62585.38;5032836;28;20441;-75
2022/04/14 08:57:06;;;;;;;19.07;17.10;;;;;;;-143.37;100.00;62585.38;5071980;28;20532;-75
2022/04/14 08:59:44;;;;;;;21.10;18.80;;;;;;;-143.37;100.00;62585.38;5033955;28;21039;-75
2022/04/14 09:02:23;;;;;;;19.40;17.50;;;;;;;-143.37;100.00;62585.38;5064763;28;20542;-76
2022/04/14 09:04:58;;;;;;;22.27;18.67;;;;;;;-143.37;100.00;62585.38;5062269;28;20483;-75
2022/04/14 09:07:36;;;;;;;20.70;18.60;;;;;;;-143.37;100.00;62585.38;5063478;28;20454;-75
2022/04/14 09:10:19;;;;;;;20.10;18.07;;;;;;;-143.37;100.00;62585.38;5078900;28;20477;-75
2022/04/14 09:12:54;;;;;;;19.27;17.13;;;;;;;-143.37;100.00;62585.38;5067020;28;20454;-75
2022/04/14 09:15:30;;;;;;;19.53;17.30;;;;;;;-143.37;100.00;62585.38;5067089;28;20449;-75
2022/04/14 09:18:07;;;;;;;19.90;17.77;;;;;;;-143.37;100.00;62585.38;5062794;28;20457;-75
2022/04/14 09:20:43;;;;;;;23.30;17.10;;;;;;;-143.37;100.00;62585.38;5068330;28;20544;-75
2022/04/14 09:23:21;;;;;;;19.13;17.00;;;;;;;-143.37;100.00;62585.38;5051812;28;20445;-75
2022/04/14 09:26:11;;;;;;;23.43;18.83;;;;;;;-143.37;100.00;62585.38;5073908;28;21096;-75
2022/04/14 09:29:01;;;;;;;22.93;18.10;;;;;;;-143.37;100.00;62585.38;5047753;28;20442;-74
2022/04/14 09:31:50;;;;;;;22.07;16.60;;;;;;;-143.37;100.00;62585.38;5067417;28;20445;-74
2022/04/14 09:34:48;;;;;;;21.53;16.53;;;;;;;-143.37;100.00;62585.38;5064408;28;20556;-76
2022/04/14 09:37:36;;;;;;;18.07;16.20;;;;;;;-143.37;100.00;62585.38;5051674;28;20462;-74
2022/04/14 09:40:14;;;;;;;17.90;16.10;;;;;;;-143.37;100.00;62585.38;5065573;28;20975;-75
2022/04/14 09:42:51;;;;;;;19.93;16.60;;;;;;;-143.37;100.00;62585.38;5062993;28;20525;-75
2022/04/14 09:45:28;;;;;;;18.77;16.90;;;;;;;-143.37;100.00;62585.38;5046592;28;20461;-75
2022/04/14 09:48:07;;;;;;;18.50;16.70;;;;;;;-143.37;100.00;62585.38;5050830;28;20505;-75
2022/04/14 09:50:48;;;;;;;17.37;14.97;;;;;;;-143.37;100.00;62585.38;5068186;28;20533;-75
2022/04/14 09:53:26;;;;;;;21.47;18.57;;;;;;;-143.37;100.00;62585.38;5062403;28;20433;-75
2022/04/14 09:56:04;;;;;;;19.63;17.47;;;;;;;-143.37;100.00;62585.38;5062488;28;20830;-75
2022/04/14 09:58:41;;;;;;;18.27;16.33;;;;;;;-143.37;100.00;62585.38;5061761;28;20451;-75
2022/04/14 10:01:20;;;;;;;20.10;17.97;;;;;;;-143.37;100.00;62585.38;5062457;28;20434;-74
2022/04/14 10:03:55;;;;;;;20.30;16.80;;;;;;;-143.37;100.00;62585.38;5059068;28;20469;-75
2022/04/14 10:06:32;;;;;;;21.03;18.60;;;;;;;-143.37;100.00;62585.38;5030413;28;22076;-74
2022/04/14 10:09:09;;;;;;;20.47;17.30;;;;;;;-143.37;100.00;62585.38;5064175;28;20958;-75
2022/04/14 10:11:46;;;;;;;19.20;17.20;;;;;;;-143.37;100.00;62585.38;5066171;28;20434;-75
2022/04/14 10:14:24;;;;;;;17.43;15.67;;;;;;;-143.37;100.00;62585.38;5066910;28;20798;-75
2022/04/14 10:17:02;;;;;;;19.30;17.30;;;;;;;-143.37;100.00;62585.38;5068003;28;21149;-75
2022/04/14 10:19:38;;;;;;;20.97;17.50;;;;;;;-143.37;100.00;62585.38;5063369;28;20461;-75
2022/04/14 10:22:16;;;;;;;21.90;16.17;;;;;;;-143.37;100.00;62585.38;5061069;28;20430;-74
2022/04/14 10:24:53;;;;;;;20.50;16.50;;;;;;;-143.37;100.00;62585.38;5031687;28;20545;-75
2022/04/14 10:27:30;;;;;;;18.97;17.03;;;;;;;-143.37;100.00;62585.38;5066895;28;20477;-75
2022/04/14 10:30:07;;;;;;;19.27;17.00;;;;;;;-143.37;100.00;62585.38;5081281;28;20477;-75
2022/04/14 10:32:44;;;;;;;17.30;15.50;;;;;;;-143.37;100.00;62585.38;5065666;28;20571;-75
2022/04/14 10:35:20;;;;;;;19.03;16.90;;;;;;;-143.37;100.00;62585.38;5064787;28;21070;-74
2022/04/14 10:38:06;;;;;;;16.33;14.67;;;;;;;-143.37;100.00;62585.38;5062579;28;20454;-75
2022/04/14 10:40:45;;;;;;;19.17;16.50;;;;;;;-143.37;100.00;62585.38;5048781;28;20454;-75
2022/04/14 10:43:22;;;;;;;19.43;16.47;;;;;;;-143.37;100.00;62585.38;5066119;28;20933;-77
2022/04/14 10:45:59;;;;;;;20.77;18.63;;;;;;;-143.37;100.00;62585.38;5068454;28;20904;-77
2022/04/14 10:48:39;;;;;;;18.97;17.07;;;;;;;-143.37;100.00;62585.38;5067285;28;20466;-75
2022/04/14 10:51:20;;;;;;;20.47;16.50;;;;;;;-143.37;100.00;62585.38;5048066;28;20763;-75
2022/04/14 10:54:00;;;;;;;19.07;17.03;;;;;;;-143.37;100.00;62585.38;5063740;28;20798;-75
2022/04/14 10:56:52;;;;;;;22.20;18.00;;;;;;;-143.37;100.00;62585.38;5078208;28;20429;-75
2022/04/14 10:59:45;;;;;;;21.30;17.57;;;;;;;-143.37;100.00;62585.38;5063941;28;20507;-75
2022/04/14 11:02:20;;;;;;;20.87;17.50;;;;;;;-143.37;100.00;62585.38;5049747;28;20450;-75
2022/04/14 11:04:56;;;;;;;23.23;16.90;;;;;;;-143.37;100.00;62585.38;5063965;28;20924;-75
2022/04/14 11:07:32;;;;;;;19.03;16.20;;;;;;;-143.37;100.00;62585.38;5062709;28;20943;-75
2022/04/14 11:10:15;;;;;;;19.03;16.13;;;;;;;-143.37;100.00;62585.38;5046733;28;20463;-75
2022/04/14 11:12:57;;;;;;;19.40;17.30;;;;;;;-143.37;100.00;62585.38;5061047;28;20451;-75
2022/04/14 11:15:33;;;;;;;18.90;16.30;;;;;;;-143.37;100.00;62585.38;5083881;28;20442;-76
2022/04/14 11:18:08;;;;;;;19.37;16.40;;;;;;;-143.37;100.00;62585.38;5077554;28;20462;-76
2022/04/14 11:20:57;;;;;;;19.57;17.47;;;;;;;-143.37;100.00;62585.38;5063740;28;20438;-75
2022/04/14 11:23:35;;;;;;;19.20;17.17;;;;;;;-143.37;100.00;62585.38;5059720;28;20516;-75
2022/04/14 11:26:12;;;;;;;23.63;17.40;;;;;;;-143.37;100.00;62585.38;5066028;28;20447;-75
2022/04/14 11:28:57;;;;;;;18.87;15.00;;;;;;;-143.37;100.00;62585.38;5065887;28;20529;-75
2022/04/14 11:31:34;;;;;;;17.07;15.30;;;;;;;-143.37;100.00;62585.38;5064348;28;20536;-75
2022/04/14 11:34:10;;;;;;;20.67;16.87;;;;;;;-143.37;100.00;62585.38;5063931;28;20544;-74
2022/04/14 11:36:46;;;;;;;18.70;15.70;;;;;;;-143.37;100.00;62585.38;5064248;28;20434;-74
2022/04/14 11:39:25;;;;;;;19.00;15.73;;;;;;;-143.37;100.00;62585.38;5066775;28;20469;-75
2022/04/14 11:42:10;;;;;;;19.50;16.57;;;;;;;-143.37;100.00;62585.38;5061502;28;20455;-74
2022/04/14 11:44:46;;;;;;;17.33;15.63;;;;;;;-143.37;100.00;62585.38;5050542;28;20562;-74
2022/04/14 11:47:22;;;;;;;20.50;15.70;;;;;;;-143.37;100.00;62585.38;5049129;28;20445;-75